Date,TemperatureHighF,TemperatureAvgF,TemperatureLowF,DewpointHighF,DewpointAvgF,DewpointLowF,HumidityHigh,HumidityAvg,HumidityLow,PressureMaxIn,PressureMinIn,WindSpeedMaxMPH,WindSpeedAvgMPH,GustSpeedMaxMPH,PrecipitationSumIn
2013-1-1,36.2,23.9,15.0,16.8,13.1,10.0,86,65,38,30.27,30.13,6,1,14,0.00
2013-1-2,31.9,18.0,6.3,10.8,7.6,2.7,89,66,36,30.30,30.17,2,0,7,0.00
2013-1-3,38.8,20.8,11.5,13.5,8.4,4.2,76,60,35,30.38,30.26,2,0,12,0.00
2013-1-4,35.8,17.2,5.7,9.4,2.7,-0.8,74,55,30,30.37,30.19,2,0,9,0.00
2013-1-5,43.8,22.6,8.6,10.2,4.9,0.7,71,49,24,30.40,30.28,1,0,9,0.00
2013-1-6,41.4,23.0,11.1,9.9,6.2,2.9,70,51,27,30.41,30.19,1,0,13,0.00
2013-1-7,47.4,32.5,24.9,16.7,12.6,10.3,63,45,29,30.16,30.00,5,0,13,0.00
2013-1-8,49.9,30.0,16.1,15.7,12.4,8.1,70,51,24,30.26,30.03,5,1,15,0.00
2013-1-9,50.9,32.2,16.8,17.2,12.2,7.7,67,46,26,30.45,30.20,2,0,10,0.00
2013-1-10,48.2,30.2,19.8,16.6,12.3,9.6,65,49,28,30.17,29.84,2,0,10,0.00
2013-1-11,38.9,30.1,17.2,21.2,6.2,-6.4,65,38,22,29.99,29.73,3,0,24,0.00
2013-1-12,31.0,16.2,6.0,0.1,-4.5,-8.3,59,41,25,30.06,29.92,2,0,17,0.00
2013-1-13,33.4,13.5,0.9,2.9,-3.2,-8.5,66,49,27,30.15,30.00,2,0,11,0.00
2013-1-14,24.8,15.9,7.6,20.3,8.8,-5.2,91,74,50,30.14,30.01,0,0,8,0.00
2013-1-15,26.0,10.8,-3.0,6.3,0.2,-5.9,87,64,42,30.36,30.15,1,0,11,0.02
2013-1-16,36.4,16.7,1.3,16.0,6.7,-3.1,84,67,41,30.45,30.32,0,0,8,0.04
2013-1-17,47.0,25.3,11.9,21.4,13.8,7.8,84,65,32,30.52,30.38,2,0,7,0.00
2013-1-18,52.3,28.6,16.2,21.8,16.4,12.7,86,64,30,30.42,30.25,1,0,7,0.00
2013-1-19,50.2,30.7,15.9,20.3,16.0,12.7,87,58,27,30.41,30.29,2,0,9,0.00
2013-1-20,53.5,31.0,16.0,19.4,13.1,10.0,77,52,24,30.36,30.19,1,0,8,0.00
2013-1-21,53.3,31.2,16.2,16.3,11.7,7.5,70,47,21,30.36,30.22,1,0,10,0.00
2013-1-22,57.9,32.2,17.3,19.5,12.5,8.8,78,50,16,30.36,30.25,2,0,16,0.00
2013-1-23,58.2,33.0,16.2,14.9,11.5,7.8,71,46,18,30.42,30.29,0,0,9,0.00
2013-1-24,59.9,39.1,18.1,32.6,17.1,8.3,71,45,19,30.36,30.21,3,0,14,0.00
2013-1-25,56.0,42.5,31.6,37.4,30.7,24.6,77,64,49,30.33,30.20,1,0,8,0.00
2013-1-26,47.8,41.8,37.9,45.8,36.3,30.7,94,81,65,30.20,29.97,1,0,9,0.20
2013-1-27,59.3,47.2,39.1,40.2,37.5,35.3,88,71,41,30.06,29.97,5,1,16,0.00
2013-1-28,53.7,42.4,35.6,36.8,32.4,22.8,89,69,42,30.00,29.82,7,1,18,0.00
2013-1-29,33.9,30.0,25.6,20.7,14.7,7.4,69,54,36,30.01,29.82,10,2,28,0.00
2013-1-30,39.3,28.8,19.5,15.8,13.6,9.9,74,54,33,30.24,30.05,7,1,23,0.00
2013-1-31,52.7,33.1,17.2,22.7,18.3,12.9,84,58,29,30.34,30.23,2,0,15,0.00
2013-2-1,55.2,34.2,16.6,23.5,17.9,12.9,86,56,26,30.32,30.20,3,1,15,0.00
2013-2-2,55.9,37.3,22.4,21.9,18.7,15.0,79,50,26,30.42,30.30,5,0,8,0.00
2013-2-3,48.9,37.1,25.1,28.0,19.8,16.5,70,52,28,30.33,30.05,2,0,7,0.00
2013-2-4,58.0,41.6,27.5,27.8,23.3,19.4,79,51,28,30.18,30.06,3,0,12,0.00
2013-2-5,60.0,39.5,25.3,23.2,18.3,14.3,80,46,20,30.17,30.04,2,0,13,0.00
2013-2-6,60.8,38.2,21.6,27.1,19.2,12.0,72,49,27,30.06,29.93,3,0,11,0.00
2013-2-7,58.3,37.9,24.0,25.3,19.2,12.5,81,50,24,30.21,30.08,1,0,8,0.00
2013-2-8,55.0,42.2,25.8,23.3,19.9,14.6,66,43,28,30.16,29.87,8,2,19,0.00
2013-2-9,48.1,32.6,19.6,22.1,14.6,6.4,81,51,24,29.90,29.73,9,1,29,0.00
2013-2-10,44.1,32.1,23.7,21.2,13.6,10.1,74,48,29,30.03,29.93,2,0,15,0.00
2013-2-11,44.1,28.8,16.8,21.5,15.3,9.6,84,61,24,30.08,29.96,0,0,21,0.00
2013-2-12,41.7,28.6,21.2,21.6,12.2,7.2,79,53,28,30.21,30.03,6,1,18,0.00
2013-2-13,47.6,30.8,15.4,16.1,12.1,6.4,67,47,28,30.22,30.09,6,0,13,0.00
2013-2-14,52.8,35.3,19.0,18.8,16.5,11.4,72,49,26,30.23,30.10,8,1,17,0.00
2013-2-15,51.6,34.1,19.6,20.7,11.7,6.3,80,45,18,30.38,30.23,6,0,23,0.00
2013-2-16,56.4,36.5,17.1,14.6,8.2,1.2,60,34,14,30.44,30.19,3,0,16,0.00
2013-2-17,58.2,37.8,15.7,9.9,6.2,1.9,54,30,13,30.20,29.81,3,0,13,0.00
2013-2-18,51.3,40.0,30.5,11.9,1.2,-8.5,45,22,9,30.14,29.90,5,1,15,0.00
2013-2-19,61.2,39.3,20.3,33.0,8.0,-6.6,65,30,12,30.14,29.83,8,1,25,0.00
2013-2-20,49.1,40.4,32.3,33.2,27.8,18.8,80,63,32,29.82,29.64,7,1,22,0.00
2013-2-21,47.9,35.2,28.3,27.2,22.8,16.6,95,64,32,29.95,29.69,3,0,15,0.00
2013-2-22,43.6,34.0,26.4,22.6,19.2,13.7,72,55,37,30.09,29.94,3,0,20,0.00
2013-2-23,48.6,32.9,16.0,14.9,11.5,6.7,66,44,23,30.13,29.80,1,0,12,0.00
2013-2-24,41.2,32.5,26.1,25.2,14.7,4.2,95,51,28,29.95,29.75,10,1,26,0.00
2013-2-25,48.4,33.0,21.7,17.5,10.4,4.5,69,43,19,30.12,29.98,3,0,18,0.00
2013-2-26,45.6,30.8,17.3,14.0,5.2,0.4,59,36,17,30.12,29.92,9,2,29,0.00
2013-2-27,43.9,29.7,15.6,9.6,4.7,-0.5,59,36,21,30.31,30.17,1,0,9,0.00
2013-2-28,53.2,33.4,14.7,9.5,4.2,-1.5,49,31,15,30.37,30.24,2,0,15,0.00
2013-3-1,59.4,42.7,27.4,19.7,14.3,6.2,45,32,20,30.40,30.26,1,0,15,0.00
2013-3-2,65.3,43.7,26.0,23.2,18.7,14.0,60,40,19,30.44,30.23,6,0,10,0.00
2013-3-3,64.1,45.7,23.1,21.2,15.8,8.5,72,35,11,30.22,29.95,3,1,22,0.00
2013-3-4,61.9,51.2,40.9,23.4,20.0,17.2,39,29,22,30.15,29.91,8,1,25,0.00
2013-3-5,60.4,43.4,27.7,21.0,17.3,11.8,73,39,16,30.34,30.18,1,0,16,0.00
2013-3-6,65.3,49.4,37.8,26.6,20.8,14.5,44,33,22,30.21,30.00,3,0,14,0.00
2013-3-7,70.6,50.4,29.6,21.2,18.6,15.0,56,32,14,30.13,29.96,2,0,16,0.00
2013-3-8,57.9,43.5,31.0,41.6,25.2,12.5,84,52,24,30.03,29.85,6,1,20,0.10
2013-3-9,43.6,36.9,30.8,32.8,24.0,18.9,85,61,38,30.04,29.88,5,0,23,0.01
2013-3-10,49.8,35.7,22.4,27.5,21.8,16.7,93,62,31,30.20,30.05,6,0,15,0.00
2013-3-11,60.7,41.0,23.2,21.7,17.2,13.2,75,44,17,30.23,30.05,1,0,16,0.00
2013-3-12,65.6,47.6,29.8,24.7,21.0,18.0,61,38,20,30.27,30.13,0,0,13,0.00
2013-3-13,68.5,48.4,28.4,27.4,22.8,17.1,73,41,19,30.38,30.23,0,0,14,0.00
2013-3-14,72.1,50.7,30.8,24.4,18.9,15.8,59,32,14,30.38,30.22,2,0,10,0.00
2013-3-15,77.0,53.8,36.0,23.4,17.9,14.5,44,28,11,30.26,30.01,1,0,9,0.00
2013-3-16,69.6,53.7,34.2,32.8,22.0,15.6,47,31,18,30.04,29.86,5,1,18,0.00
2013-3-17,66.1,51.7,37.2,33.8,22.7,2.7,70,39,10,29.97,29.79,9,1,25,0.00
2013-3-18,66.3,48.9,30.2,13.7,10.4,7.1,47,23,12,30.07,29.96,8,1,21,0.00
2013-3-19,60.4,46.8,33.4,17.1,14.0,10.7,41,28,16,30.21,30.06,1,0,18,0.00
2013-3-20,60.4,47.1,27.6,24.6,18.6,13.3,63,34,21,30.30,29.97,3,0,13,0.00
2013-3-21,70.4,55.9,42.4,31.2,21.0,9.5,49,30,10,29.94,29.75,10,2,35,0.00
2013-3-22,63.3,48.5,29.0,26.6,14.5,10.0,51,28,14,29.92,29.73,2,0,16,0.00
2013-3-23,47.1,38.2,26.3,25.4,5.3,-8.4,48,27,13,30.13,29.81,9,2,37,0.00
2013-3-24,53.1,37.1,17.9,5.1,0.3,-8.7,53,22,13,30.18,29.97,0,0,16,0.00
2013-3-25,54.0,37.1,22.9,13.7,8.8,4.6,48,33,18,30.25,30.10,1,0,18,0.00
2013-3-26,64.1,46.4,28.2,17.0,12.0,7.0,40,26,16,30.24,30.01,1,0,14,0.00
2013-3-27,72.0,55.3,39.7,19.0,15.3,11.6,35,22,11,30.14,30.02,0,0,17,0.00
2013-3-28,73.2,56.8,38.0,23.5,18.5,13.8,45,24,12,30.18,30.07,0,0,22,0.00
2013-3-29,71.4,56.6,38.0,23.9,20.4,16.9,48,27,14,30.24,30.10,1,0,12,0.00
2013-3-30,70.5,55.3,34.2,26.5,21.4,16.6,52,29,15,30.23,30.04,0,0,15,0.00
2013-3-31,71.6,58.1,44.8,31.4,27.8,24.6,50,33,21,30.18,30.02,0,0,14,0.00
2013-4-1,73.1,57.1,38.3,28.5,21.8,11.9,57,30,11,30.13,29.92,1,0,15,0.00
2013-4-2,67.6,53.9,40.2,27.6,19.3,9.8,43,27,11,30.05,29.90,5,0,26,0.00
2013-4-3,64.3,50.6,37.6,30.8,26.1,21.6,67,42,20,30.18,30.06,0,0,10,0.00
2013-4-4,70.8,52.6,35.3,27.4,22.6,17.6,65,36,14,30.27,30.11,0,0,7,0.00
2013-4-5,75.3,58.9,43.3,20.9,17.8,14.2,33,22,12,30.15,29.90,0,0,13,0.00
2013-4-6,74.5,61.3,43.6,27.4,23.5,19.6,44,25,15,30.08,29.90,1,0,9,0.00
2013-4-7,73.5,61.2,45.0,28.2,22.5,19.3,41,24,14,30.00,29.84,5,0,14,0.00
2013-4-8,75.6,60.0,49.5,29.1,23.4,18.6,38,26,12,29.86,29.51,6,1,25,0.00
2013-4-9,52.4,46.1,40.8,34.8,30.6,26.8,76,55,39,29.92,29.57,1,0,16,0.00
2013-4-10,48.8,40.3,35.7,33.4,24.4,19.9,84,55,36,30.03,29.94,2,0,12,0.00
2013-4-11,62.8,46.2,28.5,29.7,23.2,15.8,62,42,27,30.03,29.90,3,0,17,0.00
2013-4-12,66.7,54.9,40.7,32.0,28.4,24.3,63,39,20,30.02,29.89,0,0,8,0.00
2013-4-13,73.8,59.4,37.7,28.2,22.7,17.3,55,27,14,30.01,29.77,1,0,15,0.00
2013-4-14,74.8,62.9,51.8,26.6,23.9,21.8,32,23,14,29.82,29.71,0,0,16,0.00
2013-4-15,78.7,64.1,47.6,27.2,22.1,17.5,38,22,10,29.86,29.69,3,0,19,0.00
2013-4-16,78.4,64.3,49.4,26.0,19.9,12.8,31,20,10,29.91,29.73,2,0,21,0.00
2013-4-17,59.9,51.0,39.1,27.4,20.3,14.2,42,30,19,30.02,29.78,0,0,18,0.00
2013-4-18,48.4,39.5,30.1,12.4,7.1,3.2,43,27,18,30.22,30.06,2,0,21,0.00
2013-4-19,60.7,43.9,23.7,13.3,8.8,5.0,46,26,13,30.33,30.04,0,0,5,0.00
2013-4-20,66.0,52.6,37.0,19.6,15.4,9.8,41,24,13,30.09,29.94,0,0,23,0.00
2013-4-21,71.0,53.1,31.0,24.0,19.0,11.4,65,30,10,30.20,30.03,1,0,15,0.00
2013-4-22,79.5,59.8,35.0,22.4,19.2,16.3,50,25,10,30.09,29.87,1,0,17,0.00
2013-4-23,64.9,55.3,41.7,29.3,19.4,-1.7,54,27,10,30.12,29.93,2,0,28,0.00
2013-4-24,65.0,46.9,28.9,24.7,19.3,16.3,60,37,17,30.25,30.08,0,0,5,0.00
2013-4-25,71.1,58.6,46.9,30.3,25.8,20.7,42,30,17,30.17,29.91,0,0,24,0.00
2013-4-26,73.1,58.2,40.2,31.1,23.5,10.1,63,31,9,30.23,30.10,0,0,13,0.00
2013-4-27,75.0,58.0,39.7,30.7,20.0,6.2,62,28,9,30.29,30.11,0,0,7,0.00
2013-4-28,79.1,58.8,35.9,21.2,16.3,11.1,51,23,9,30.17,29.95,2,0,7,0.00
2013-4-29,82.3,60.6,38.2,25.3,21.3,17.5,50,25,11,30.04,29.84,0,0,13,0.00
2013-4-30,83.1,65.5,42.1,29.2,22.9,17.4,51,24,10,29.96,29.81,0,0,13,0.00
2013-5-1,82.0,67.3,52.3,26.9,21.0,15.9,31,19,10,30.19,29.92,2,0,16,0.00
2013-5-2,59.4,50.1,36.6,27.6,20.5,15.1,61,34,18,30.47,30.27,0,0,5,0.00
2013-5-3,64.8,50.1,32.4,19.7,15.8,12.2,46,27,16,30.41,30.05,0,0,7,0.00
2013-5-4,73.9,57.2,39.5,18.4,15.5,12.3,34,21,12,30.09,29.95,1,0,23,0.00
2013-5-5,71.1,61.0,49.3,32.0,23.3,15.4,30,24,17,30.19,30.06,2,0,19,0.00
2013-5-6,68.0,60.4,51.8,38.0,28.2,19.9,42,30,24,30.09,30.01,0,0,13,0.00
2013-5-7,75.3,60.6,41.4,34.6,31.8,28.5,70,37,19,30.12,29.95,1,0,20,0.00
2013-5-8,68.9,58.1,44.4,36.2,28.7,20.8,66,36,18,30.10,29.99,0,0,9,0.00
2013-5-9,72.6,59.4,43.7,29.5,26.7,22.8,48,30,20,30.13,30.03,1,0,12,0.00
2013-5-10,68.4,58.4,45.9,42.0,35.7,32.3,59,44,29,30.30,30.15,0,0,10,0.00
2013-5-11,71.7,58.4,45.8,43.6,37.4,31.4,83,50,24,30.36,30.30,0,0,12,0.00
2013-5-12,77.2,59.7,41.6,35.7,33.5,30.1,71,42,19,30.37,30.17,1,0,10,0.00
2013-5-13,79.9,60.0,44.6,35.0,33.0,30.3,68,40,17,30.33,30.15,0,0,6,0.00
2013-5-14,85.1,66.4,49.1,41.0,31.9,23.9,51,30,15,30.22,29.98,3,0,16,0.00
2013-5-15,82.5,69.1,58.0,47.2,38.5,33.2,59,36,17,30.09,29.93,2,0,17,0.00
2013-5-16,84.5,68.7,46.5,38.1,27.3,17.4,58,27,10,30.10,29.93,1,0,15,0.00
2013-5-17,84.6,68.2,46.2,33.7,26.4,17.3,57,24,11,30.10,29.93,2,0,15,0.00
2013-5-18,75.9,66.9,51.4,32.1,25.3,20.0,37,22,14,30.09,29.90,1,0,13,0.00
2013-5-19,73.5,63.3,55.1,36.3,31.3,23.0,47,32,16,30.05,29.95,3,0,16,0.00
2013-5-20,74.0,61.0,48.1,35.9,31.1,22.7,60,35,15,30.06,29.93,3,0,21,0.00
2013-5-21,77.6,61.9,42.6,35.2,30.8,24.8,64,35,15,30.13,29.95,3,0,14,0.00
2013-5-22,83.4,66.4,44.6,32.4,28.6,24.4,56,28,12,30.04,29.89,2,0,9,0.00
2013-5-23,89.0,70.4,46.1,38.0,27.0,22.7,48,23,10,30.08,29.92,2,0,15,0.00
2013-5-24,86.1,71.0,51.4,44.1,33.9,25.5,61,30,13,30.17,30.00,1,0,10,0.00
2013-5-25,87.7,69.6,48.6,37.8,29.6,20.0,50,26,9,30.17,29.95,1,0,12,0.00
2013-5-26,86.6,69.0,50.4,36.9,24.7,15.8,44,23,8,30.15,29.96,0,0,9,0.00
2013-5-27,82.1,65.5,47.7,33.7,24.6,17.6,45,24,9,30.11,29.92,3,0,21,0.00
2013-5-28,84.1,66.7,42.8,31.0,24.9,16.9,56,24,10,29.97,29.75,3,0,9,0.00
2013-5-29,79.7,70.6,57.8,38.4,25.9,15.8,40,21,10,29.87,29.76,6,1,22,0.00
2013-5-30,85.2,69.7,51.2,31.4,26.8,22.3,39,22,11,29.99,29.88,3,0,19,0.00
2013-5-31,73.1,66.5,59.5,41.0,28.4,13.1,39,27,11,30.08,29.97,0,0,6,0.00
2013-6-1,83.1,69.0,45.2,33.6,22.5,16.0,36,19,9,30.18,30.05,2,0,12,0.00
2013-6-2,75.1,65.4,57.7,41.0,34.9,29.1,44,33,24,30.19,30.01,0,0,3,0.00
2013-6-3,89.9,75.7,57.5,48.1,36.8,18.6,59,30,9,30.10,29.91,3,0,15,0.00
2013-6-4,90.2,73.5,50.1,35.1,28.7,22.9,46,22,10,30.09,29.95,2,0,13,0.00
2013-6-5,89.4,75.4,58.6,44.9,37.5,31.5,46,27,14,30.10,29.95,2,0,13,0.00
2013-6-6,86.0,70.6,52.0,45.1,39.5,29.9,63,37,15,30.14,29.98,1,0,8,0.00
2013-6-7,68.4,65.8,61.9,47.2,42.4,37.3,58,44,33,30.11,30.00,0,0,8,0.00
2013-6-8,92.5,75.9,57.7,46.5,38.4,28.4,60,32,11,30.04,29.87,2,0,17,0.00
2013-6-9,91.2,76.3,63.8,47.8,42.7,32.3,52,32,17,30.13,30.00,0,0,5,0.00
2013-6-10,97.6,80.1,62.5,52.0,41.5,28.7,56,30,11,30.14,29.98,2,0,13,0.00
2013-6-11,98.0,82.2,64.0,41.4,31.7,21.4,34,18,8,30.17,30.00,3,0,10,0.00
2013-6-12,97.8,76.9,53.8,42.7,33.4,28.3,44,24,9,30.20,30.06,0,0,5,0.00
2013-6-13,97.2,77.5,58.6,46.2,39.5,33.2,47,27,12,30.17,30.03,8,1,18,0.00
2013-6-14,90.1,77.1,63.9,53.8,47.5,43.3,54,37,23,30.13,29.97,16,1,25,0.00
2013-6-15,92.7,77.5,61.6,51.4,43.1,33.6,63,34,13,30.18,30.04,8,0,26,0.00
2013-6-16,91.9,77.9,63.3,48.5,42.7,38.4,50,30,17,30.20,30.08,0,0,20,0.03
2013-6-17,90.8,74.9,59.3,48.6,42.9,39.6,57,35,18,30.22,30.02,1,0,12,0.00
2013-6-18,87.3,76.7,63.7,51.1,47.2,40.5,61,38,20,30.21,29.98,1,0,9,0.00
2013-6-19,94.7,80.5,60.7,48.5,33.7,20.1,53,24,7,30.07,29.88,2,0,15,0.00
2013-6-20,92.4,74.1,55.3,43.3,28.6,14.9,50,23,6,30.11,29.92,2,0,8,0.00
2013-6-21,91.8,72.0,51.0,45.6,30.7,20.0,42,25,8,30.15,29.94,1,0,8,0.00
2013-6-22,91.3,72.7,50.9,34.8,26.8,17.2,47,23,8,30.11,29.94,1,0,13,0.00
2013-6-23,90.4,73.3,51.0,31.9,26.8,22.4,46,21,9,30.09,29.90,1,0,10,0.00
2013-6-24,91.7,77.5,55.7,36.7,25.4,14.3,35,17,7,30.09,29.95,3,0,14,0.00
2013-6-25,91.6,75.2,54.6,36.5,30.3,24.4,41,21,11,30.15,30.02,1,0,9,0.00
2013-6-26,95.9,76.7,53.6,41.6,36.5,31.7,56,27,11,30.20,30.06,1,0,8,0.00
2013-6-27,101.8,82.1,62.8,41.5,36.6,28.7,43,23,8,30.23,30.09,3,0,10,0.00
2013-6-28,95.7,80.4,70.4,48.9,44.6,37.6,38,29,17,30.29,30.18,5,1,29,0.00
2013-6-29,95.6,79.0,67.2,49.6,46.6,41.7,51,34,17,30.26,30.08,15,1,25,0.00
2013-6-30,95.0,78.8,61.9,50.4,46.8,43.7,57,34,19,30.22,30.02,8,0,32,0.00
2013-7-1,86.3,72.8,59.7,57.8,51.9,46.1,82,52,27,30.30,30.14,2,0,10,0.05
2013-7-2,86.4,72.6,61.9,58.4,49.7,46.3,62,46,25,30.31,30.08,2,0,18,0.01
2013-7-3,83.4,71.2,60.1,58.0,52.4,44.5,83,55,28,30.24,30.00,2,0,16,0.08
2013-7-4,88.6,75.0,59.0,56.9,51.9,47.3,87,50,25,30.10,29.97,3,0,15,0.00
2013-7-5,91.8,74.9,64.9,62.2,54.0,48.5,87,50,27,30.09,29.94,3,0,24,0.13
2013-7-6,86.6,74.3,64.1,62.6,56.4,49.5,81,58,29,30.13,29.97,0,0,0,0.01
2013-7-7,89.9,77.5,64.3,60.8,55.8,49.3,84,52,26,30.15,30.03,0,0,0,0.01
2013-7-8,92.2,78.1,69.8,57.3,54.6,50.2,60,46,24,30.28,30.12,1,0,18,0.00
2013-7-9,92.4,76.2,65.5,67.5,59.3,53.6,86,60,27,30.28,30.13,2,0,20,0.10
2013-7-10,92.4,78.1,66.8,60.0,55.9,49.7,72,50,26,30.25,30.09,0,0,16,0.00
2013-7-11,87.1,76.9,68.7,58.6,55.1,49.6,67,49,28,30.26,30.07,2,0,9,0.00
2013-7-12,86.5,78.5,73.8,65.3,57.7,53.2,72,50,34,30.14,30.07,0,0,7,0.05
2013-7-13,90.5,78.1,65.9,60.3,55.7,49.5,80,49,25,30.21,30.08,0,0,10,0.00
2013-7-14,92.9,79.2,66.0,60.6,54.2,49.0,79,46,23,30.20,29.99,2,0,10,0.05
2013-7-15,75.1,69.9,65.8,62.2,56.2,51.4,86,63,48,30.21,30.14,0,0,14,0.01
2013-7-16,81.5,70.3,61.5,51.5,49.0,46.3,68,49,30,30.27,30.16,1,0,11,0.00
2013-7-17,78.4,69.5,59.7,55.0,51.0,47.7,80,54,35,30.36,30.24,3,0,10,0.00
2013-7-18,84.7,71.7,59.7,54.6,52.5,50.7,75,53,33,30.32,30.15,0,0,10,0.00
2013-7-19,86.6,71.5,65.8,62.0,57.7,53.2,78,63,36,30.23,30.08,3,0,16,0.05
2013-7-20,84.8,73.1,63.2,62.0,58.6,53.6,89,63,39,30.17,30.02,0,0,16,0.10
2013-7-21,88.0,75.9,65.3,59.2,55.2,50.1,78,52,31,30.15,30.02,3,0,17,0.00
2013-7-22,91.4,78.5,63.2,56.0,52.4,46.5,74,44,22,30.14,30.01,0,0,8,0.00
2013-7-23,94.4,78.4,65.7,56.3,51.8,45.3,66,42,22,30.15,30.03,2,0,12,0.00
2013-7-24,86.7,72.5,65.6,57.6,53.6,49.1,70,53,32,30.24,30.10,3,0,10,0.01
2013-7-25,84.3,73.5,63.6,58.2,57.3,56.2,80,59,39,30.26,30.13,2,0,8,0.00
2013-7-26,84.6,73.7,62.1,62.9,60.2,56.9,96,66,44,30.31,30.19,8,1,28,0.35
2013-7-27,79.8,71.3,58.3,60.5,58.1,55.3,99,66,44,30.33,30.10,1,0,6,0.00
2013-7-28,83.7,73.2,64.6,63.4,59.1,50.7,88,64,32,30.14,30.02,3,0,12,0.03
2013-7-29,84.7,71.7,62.3,60.4,55.8,46.7,90,62,27,30.19,30.10,0,0,9,0.02
2013-7-30,89.7,76.0,61.3,56.6,52.8,49.8,79,48,26,30.32,30.20,2,0,7,0.00
2013-7-31,91.3,76.7,64.1,55.4,51.4,45.9,70,45,21,30.32,30.17,0,0,10,0.00
2013-8-1,85.6,73.4,67.5,63.7,57.4,55.1,87,59,36,30.30,30.17,1,0,7,0.02
2013-8-2,87.3,73.8,63.3,64.2,59.1,54.1,98,65,33,30.22,30.08,2,0,9,0.24
2013-8-3,85.7,73.7,62.8,60.6,58.2,53.9,91,62,35,30.24,30.12,0,0,6,0.00
2013-8-4,91.0,76.3,64.7,61.3,58.3,52.7,86,57,30,30.25,30.11,1,0,14,0.21
2013-8-5,85.5,70.9,63.3,66.6,61.1,55.5,93,74,36,30.24,30.08,0,0,3,0.26
2013-8-6,85.1,71.3,64.5,60.3,56.6,53.1,81,61,35,30.17,30.08,3,0,16,0.00
2013-8-7,79.9,69.9,59.5,57.4,55.2,50.8,91,62,38,30.17,30.08,2,0,13,0.00
2013-8-8,82.2,70.5,59.6,57.4,51.9,44.7,86,57,28,30.17,30.08,2,0,14,0.00
2013-8-9,85.0,73.0,60.5,52.7,48.1,42.0,66,43,25,30.24,30.14,2,0,16,0.00
2013-8-10,82.9,69.7,59.7,55.3,51.5,45.0,81,55,33,30.36,30.21,3,0,21,0.08
2013-8-11,79.0,68.6,60.5,56.4,53.7,48.3,86,62,35,30.33,30.16,1,0,8,0.01
2013-8-12,80.7,70.1,64.5,58.9,56.2,53.6,75,63,40,30.30,30.17,3,0,10,0.00
2013-8-13,84.3,71.0,61.8,57.5,54.0,48.5,81,58,31,30.26,30.15,0,0,16,0.00
2013-8-14,84.9,69.8,57.4,56.9,52.4,44.9,85,58,28,30.26,30.12,7,0,19,0.00
2013-8-15,87.7,70.7,60.0,55.9,52.9,44.1,81,57,26,30.26,30.14,0,0,10,0.00
2013-8-16,90.1,74.5,58.1,53.8,49.4,44.9,79,45,22,30.26,30.13,1,0,5,0.00
2013-8-17,90.8,78.3,66.0,54.1,48.6,42.8,53,37,20,30.25,30.10,1,0,10,0.00
2013-8-18,90.0,76.8,68.1,56.8,50.8,46.4,55,42,24,30.25,30.11,2,0,8,0.01
2013-8-19,91.5,76.2,64.8,54.4,51.8,49.2,64,44,25,30.22,30.09,1,0,17,0.00
2013-8-20,87.5,73.8,61.5,57.0,54.6,50.4,80,55,28,30.23,30.08,1,0,8,0.00
2013-8-21,84.4,73.1,62.2,56.2,53.8,49.1,78,53,33,30.22,30.11,0,0,6,0.00
2013-8-22,88.9,76.0,61.2,54.0,50.3,44.4,70,43,26,30.25,30.10,1,0,9,0.00
2013-8-23,85.4,72.0,55.5,49.8,47.0,43.3,66,43,28,30.22,30.08,1,0,10,0.00
2013-8-24,83.1,72.0,62.9,60.8,55.1,50.5,84,57,36,30.25,30.13,1,0,16,0.14
2013-8-25,83.6,71.0,63.7,62.7,58.9,54.4,92,68,38,30.30,30.22,1,0,15,0.00
2013-8-26,85.4,71.6,62.0,63.1,56.4,52.1,85,62,33,30.32,30.17,0,0,7,0.03
2013-8-27,85.9,71.5,60.9,56.2,52.9,46.1,82,55,31,30.25,30.11,0,0,8,0.00
2013-8-28,85.8,72.4,58.3,55.1,51.4,48.0,74,50,31,30.24,30.14,1,0,10,0.00
2013-8-29,84.6,74.1,66.3,57.8,54.2,51.5,71,51,35,30.30,30.20,2,0,10,0.00
2013-8-30,89.6,74.5,63.4,60.4,54.7,49.6,77,54,26,30.28,30.12,1,0,8,0.00
2013-8-31,92.4,75.5,61.8,56.5,51.6,45.8,74,47,22,30.20,30.04,0,0,7,0.00
2013-9-1,93.0,78.7,68.6,58.1,50.6,46.2,68,39,21,30.24,30.07,6,0,24,0.00
2013-9-2,84.8,75.1,65.5,59.9,55.8,53.1,77,53,34,30.26,30.11,0,0,10,0.00
2013-9-3,89.6,75.8,64.1,58.0,54.4,49.4,78,51,28,30.26,30.12,7,0,15,0.00
2013-9-4,88.7,75.8,61.4,55.4,48.5,36.7,71,42,23,30.30,30.17,2,0,8,0.00
2013-9-5,88.4,74.1,59.7,50.6,42.5,36.5,52,34,22,30.31,30.19,1,0,10,0.00
2013-9-6,88.4,71.9,57.0,47.4,42.5,39.1,56,37,19,30.30,30.13,1,0,7,0.00
2013-9-7,87.9,71.8,58.8,54.2,49.3,44.3,64,47,28,30.25,30.10,2,0,9,0.00
2013-9-8,86.4,72.0,59.2,55.6,49.2,46.6,66,47,26,30.18,30.00,1,0,8,0.00
2013-9-9,84.3,72.9,60.8,53.9,51.5,48.4,72,49,32,30.10,29.96,1,0,9,0.00
2013-9-10,67.9,64.2,60.5,62.1,57.5,53.7,100,80,63,30.19,30.07,0,0,5,0.70
2013-9-11,75.8,67.3,60.5,63.1,59.6,55.4,100,79,51,30.21,30.12,0,0,3,0.00
2013-9-12,67.3,62.7,57.5,65.5,60.9,56.7,100,94,87,30.23,30.13,0,0,0,0.38
2013-9-13,67.6,62.1,58.7,61.7,59.9,57.5,100,93,76,30.19,30.09,1,0,13,0.63
2013-9-14,70.2,63.9,58.3,61.3,59.1,56.6,100,86,62,30.15,30.05,0,0,6,0.86
2013-9-15,71.3,63.4,55.0,60.4,57.0,53.7,100,81,56,30.21,30.12,0,0,2,0.15
2013-9-16,73.6,63.4,54.0,58.3,55.8,53.1,100,79,52,30.28,30.17,1,0,7,0.00
2013-9-17,77.0,66.1,57.8,59.0,56.0,49.5,98,73,42,30.23,30.05,1,0,9,0.00
2013-9-18,79.3,68.3,61.5,59.3,57.0,54.1,90,69,44,30.12,30.00,1,0,9,0.00
2013-9-19,79.3,67.3,58.4,58.9,55.1,47.9,99,68,36,30.13,30.02,0,0,7,0.04
2013-9-20,76.6,63.7,53.0,54.9,51.4,45.8,90,67,41,30.20,30.09,0,0,7,0.00
2013-9-21,76.6,64.7,54.5,56.4,53.0,47.9,92,69,38,30.19,30.02,1,0,9,0.00
2013-9-22,77.9,64.0,55.6,56.8,51.9,46.9,96,68,35,30.04,29.79,5,1,21,0.15
2013-9-23,69.3,57.9,44.9,41.8,38.4,33.6,85,52,29,30.18,29.96,1,0,14,0.00
2013-9-24,73.8,58.5,44.2,46.8,42.3,39.4,85,58,30,30.26,30.10,0,0,7,0.00
2013-9-25,78.9,62.0,46.3,46.4,43.2,39.3,86,56,28,30.09,29.85,1,0,9,0.00
2013-9-26,79.3,62.7,45.8,47.8,41.4,36.5,88,51,24,29.99,29.86,2,0,19,0.00
2013-9-27,66.5,56.5,43.8,48.9,41.4,34.4,75,57,43,30.14,29.92,3,0,16,0.00
2013-9-28,64.3,49.4,36.3,37.3,31.3,24.0,85,56,22,30.29,30.17,0,0,7,0.00
2013-9-29,73.1,52.7,37.8,37.1,33.2,26.1,82,54,19,30.30,30.12,2,0,7,0.00
2013-9-30,77.6,57.3,38.6,38.5,34.3,27.4,87,50,16,30.17,30.00,1,0,12,0.00
2013-10-1,79.4,56.9,39.5,43.1,36.2,24.6,80,53,14,30.14,30.03,1,0,6,0.00
2013-10-2,75.7,55.8,38.4,42.0,36.4,28.5,85,55,18,30.16,30.00,1,0,7,0.00
2013-10-3,75.3,56.5,39.5,40.3,35.3,31.1,83,52,20,30.07,29.87,1,0,12,0.00
2013-10-4,62.0,52.5,46.6,35.8,23.3,12.4,64,35,18,30.18,29.95,2,0,16,0.00
2013-10-5,60.6,48.6,36.6,25.7,21.6,18.9,61,36,20,30.34,30.22,0,0,8,0.00
2013-10-6,66.9,48.5,33.6,34.8,27.5,23.5,70,48,22,30.38,30.25,0,0,5,0.00
2013-10-7,71.9,51.3,35.8,34.0,28.4,24.1,75,46,19,30.34,30.15,0,0,7,0.00
2013-10-8,74.2,57.6,40.2,37.1,33.1,29.8,75,43,23,30.16,29.95,0,0,8,0.00
2013-10-9,73.7,56.5,40.7,37.4,34.5,31.3,75,48,21,30.06,29.93,1,0,10,0.00
2013-10-10,65.2,49.6,41.0,48.5,37.6,29.0,87,65,37,30.07,29.89,1,0,26,0.18
2013-10-11,59.8,45.0,31.1,35.6,31.9,28.5,95,64,36,30.14,30.05,0,0,8,0.00
2013-10-12,66.5,49.5,34.0,40.2,34.8,30.5,87,60,31,30.23,30.11,0,0,5,0.00
2013-10-13,74.1,55.7,38.6,45.2,39.5,35.9,93,60,27,30.22,30.01,1,0,15,0.00
2013-10-14,66.1,54.0,43.1,44.3,32.8,23.7,77,49,23,30.16,30.05,0,0,12,0.00
2013-10-15,66.1,48.1,32.5,37.7,30.3,25.9,79,53,29,30.17,30.01,2,0,7,0.00
2013-10-16,59.3,49.5,42.4,35.8,28.9,18.7,70,48,25,30.20,30.09,0,0,9,0.00
2013-10-17,62.2,43.3,29.0,30.0,25.1,22.8,79,53,24,30.22,30.02,0,0,6,0.00
2013-10-18,61.7,44.2,28.9,27.3,22.1,16.9,86,48,19,30.22,30.05,3,0,22,0.00
2013-10-19,63.1,44.3,30.4,30.1,25.7,18.8,85,54,20,30.28,30.10,0,0,8,0.00
2013-10-20,68.8,47.0,29.1,27.1,22.7,16.4,76,45,15,30.13,29.96,2,0,15,0.00
2013-10-21,62.0,46.9,33.9,32.6,28.9,25.1,78,52,28,30.24,30.07,0,0,3,0.00
2013-10-22,65.9,45.4,30.9,30.6,28.1,24.1,84,56,22,30.33,30.19,0,0,5,0.00
2013-10-23,69.4,48.8,32.0,32.8,28.8,22.3,77,50,25,30.29,30.15,0,0,5,0.00
2013-10-24,71.7,53.0,38.0,51.1,32.8,26.5,100,51,23,30.30,30.14,0,0,8,0.07
2013-10-25,64.4,53.1,44.7,48.7,45.6,42.0,98,78,47,30.31,30.18,0,0,16,0.09
2013-10-26,63.3,46.8,35.3,44.2,39.7,35.0,100,80,37,30.35,30.26,0,0,7,0.00
2013-10-27,66.7,48.5,35.6,39.5,37.1,34.3,97,70,34,30.29,30.01,1,0,7,0.00
2013-10-28,66.8,52.5,42.5,41.7,35.4,26.3,84,56,28,30.05,29.95,0,0,4,0.00
2013-10-29,66.8,53.5,41.0,30.2,28.4,25.5,65,40,23,30.10,29.91,2,1,7,0.00
2013-10-30,56.3,48.0,39.2,37.0,32.9,25.9,77,57,40,30.07,29.91,0,0,14,0.00
2013-10-31,55.0,40.6,30.8,29.8,27.1,23.8,84,62,34,30.18,30.08,0,0,14,0.00
2013-11-1,60.0,44.3,31.6,29.9,26.3,23.6,78,52,28,30.29,30.14,5,0,15,0.00
2013-11-2,62.9,43.5,29.1,29.3,26.6,24.3,82,55,26,30.36,30.14,0,0,8,0.00
2013-11-3,63.8,48.2,35.3,39.3,31.9,27.6,82,57,30,30.10,29.86,1,0,8,0.00
2013-11-4,66.0,51.1,32.6,40.3,34.8,28.6,85,57,32,30.03,29.87,3,0,12,0.00
2013-11-5,51.2,42.8,29.9,44.9,32.6,20.8,99,69,49,30.28,29.94,2,0,16,0.20
2013-11-6,53.5,36.8,22.9,22.3,18.9,14.9,87,52,24,30.44,30.32,0,0,8,0.00
2013-11-7,59.4,39.5,27.0,27.0,24.2,21.0,86,59,28,30.50,30.30,0,0,4,0.00
2013-11-8,61.6,40.0,24.3,28.2,25.4,21.3,95,62,27,30.31,30.10,1,0,6,0.00
2013-11-9,67.7,42.9,25.7,28.2,26.2,23.5,94,57,22,30.27,30.17,0,0,5,0.00
2013-11-10,67.3,44.5,31.6,29.0,27.3,25.5,80,56,21,30.36,30.24,0,0,5,0.00
2013-11-11,64.4,46.1,33.4,29.0,26.2,23.3,74,50,22,30.38,30.26,0,0,5,0.00
2013-11-12,60.5,40.4,28.8,34.6,28.6,22.8,80,64,35,30.56,30.40,0,0,3,0.00
2013-11-13,55.1,41.6,31.7,37.2,33.9,29.3,97,76,51,30.50,30.20,0,0,6,0.00
2013-11-14,60.2,42.8,30.7,38.9,32.7,27.4,97,71,39,30.19,30.04,0,0,4,0.00
2013-11-15,57.7,41.3,27.0,45.6,32.3,23.1,96,73,40,30.02,29.80,2,0,15,0.04
2013-11-16,59.2,46.8,41.0,42.0,36.0,27.3,100,68,36,29.93,29.78,1,0,14,0.02
2013-11-17,56.9,43.6,30.7,33.5,29.7,26.5,84,60,39,30.22,29.94,0,0,8,0.00
2013-11-18,53.3,37.3,29.8,31.6,28.8,25.8,89,73,43,30.30,30.17,0,0,1,0.00
2013-11-19,61.7,40.0,27.8,33.1,29.9,25.7,93,70,34,30.20,29.96,0,0,4,0.00
2013-11-20,47.0,39.5,32.3,42.0,35.9,29.1,100,88,60,30.05,29.97,0,0,5,0.19
2013-11-21,50.3,43.1,37.7,45.4,41.9,37.7,100,96,81,30.15,30.03,0,0,1,0.16
2013-11-22,38.6,35.5,33.2,38.6,32.1,29.0,100,88,77,30.35,30.16,0,0,1,0.09
2013-11-23,36.1,32.7,29.2,32.2,28.9,24.2,100,86,73,30.41,30.30,0,0,11,0.04
2013-11-24,29.2,26.9,24.2,26.1,22.9,20.7,97,85,70,30.35,30.16,0,0,2,0.10
2013-11-25,45.3,32.2,26.1,30.0,27.7,25.5,100,85,54,30.34,30.12,0,0,5,0.01
2013-11-26,44.9,31.3,23.1,31.2,26.9,22.7,100,85,56,30.45,30.35,0,0,3,0.00
2013-11-27,45.1,31.8,23.8,30.4,26.2,22.6,97,82,54,30.41,30.22,0,0,5,0.00
2013-11-28,47.4,33.6,25.0,28.2,26.0,21.4,100,76,46,30.31,30.22,0,0,3,0.00
2013-11-29,54.2,35.1,22.9,31.0,27.0,22.4,99,76,40,30.38,30.26,0,0,5,0.00
2013-11-30,56.4,38.0,26.9,34.2,30.0,26.5,100,76,43,30.37,30.23,1,0,3,0.00
2013-12-1,46.9,35.0,28.9,32.9,29.7,26.3,100,82,58,30.36,30.27,0,0,8,0.00
2013-12-2,53.7,33.7,24.3,29.3,25.8,22.8,94,75,39,30.25,29.97,0,0,4,0.00
2013-12-3,62.0,41.8,24.3,28.7,22.4,15.2,98,56,16,29.96,29.72,2,0,18,0.00
2013-12-4,57.7,42.9,34.1,30.6,24.0,19.2,70,49,26,29.94,29.71,3,0,23,0.00
2013-12-5,34.4,24.0,12.9,30.7,21.7,10.2,100,91,72,30.05,29.92,0,0,6,0.01
2013-12-6,36.1,19.6,9.4,21.0,12.9,6.9,94,77,46,30.20,30.06,1,0,5,0.09
2013-12-7,27.1,22.2,16.2,25.0,18.7,11.5,94,86,81,30.14,29.92,0,0,1,0.00
2013-12-8,31.5,26.9,22.8,20.3,16.1,10.8,80,64,50,30.05,29.85,8,0,17,0.01
2013-12-9,29.5,22.5,11.1,16.1,9.2,1.5,83,59,33,30.44,30.06,0,0,18,0.00
2013-12-10,35.1,19.2,8.5,9.7,5.5,1.6,80,58,30,30.47,30.26,0,0,1,0.00
2013-12-11,40.1,23.7,10.1,16.9,12.4,6.8,87,64,36,30.49,30.31,0,0,3,0.00
2013-12-12,39.0,28.9,18.7,20.9,15.5,11.0,78,58,38,30.47,30.19,0,0,3,0.00
2013-12-13,44.9,34.2,29.6,28.8,24.0,20.3,86,66,53,30.15,30.03,2,0,16,0.00
2013-12-14,46.9,32.2,21.5,19.5,17.8,16.6,84,57,32,30.41,30.19,0,0,3,0.00
2013-12-15,48.1,31.8,19.2,19.8,17.7,14.9,84,59,32,30.42,30.31,0,0,13,0.00
2013-12-16,55.7,34.0,19.7,23.7,19.6,15.7,86,59,27,30.42,30.30,0,0,3,0.00
2013-12-17,54.8,34.3,23.4,23.7,20.6,16.6,85,61,29,30.45,30.32,0,0,1,0.00
2013-12-18,50.6,33.5,22.7,24.3,21.4,19.1,89,64,33,30.31,30.02,0,0,3,0.00
2013-12-19,56.7,36.3,23.5,26.3,22.5,19.6,88,61,28,29.97,29.80,0,0,6,0.00
2013-12-20,52.9,35.3,23.6,27.1,23.3,18.7,85,65,30,29.90,29.75,1,0,7,0.00
2013-12-21,38.7,34.5,31.2,32.8,27.7,24.4,100,77,57,29.91,29.69,0,0,8,0.09
2013-12-22,44.4,31.7,24.5,23.3,18.9,14.7,83,61,35,30.30,29.94,0,0,1,0.00
2013-12-23,47.8,32.9,22.8,22.8,18.8,15.8,79,58,36,30.45,30.31,0,0,5,0.00
2013-12-24,49.3,31.9,19.6,23.9,20.1,15.5,88,64,34,30.40,30.20,0,0,9,0.00
2013-12-25,48.6,30.9,21.1,20.9,17.4,14.9,78,60,32,30.44,30.33,0,0,3,0.00
2013-12-26,48.9,29.3,15.1,21.6,15.3,11.4,85,59,31,30.42,30.25,0,0,3,0.00
2013-12-27,50.1,29.3,19.0,17.4,14.4,12.2,78,57,27,30.40,30.26,0,0,2,0.00
2013-12-28,47.1,30.1,17.2,19.0,15.8,11.6,87,59,30,30.25,29.99,1,0,7,0.00
2013-12-29,43.1,32.7,21.8,22.6,20.6,16.6,80,62,43,30.24,30.03,0,0,5,0.00
2013-12-30,49.1,32.5,18.8,17.8,13.7,10.7,84,50,21,30.37,30.24,0,0,13,0.00
2013-12-31,50.2,29.3,15.7,18.3,14.5,10.6,84,58,27,30.37,30.18,1,0,6,0.00
2014-1-1,54.4,34.7,17.5,21.4,16.8,12.4,80,52,26,30.32,30.16,2,0,17,0.00
2014-1-2,51.9,31.0,16.7,22.6,14.7,12.1,86,56,22,30.41,30.25,1,0,5,0.00